sensor_id;sensor_type;location;lat;lon;timestamp;P1;durP1;ratioP1;P2;durP2;ratioP2
46407;SDS011;32110;45.724;21.276;2023-06-26T00:00:23;11.00;;;6.20;;
46407;SDS011;32110;45.724;21.276;2023-06-26T00:02:48;9.57;;;6.53;;
46407;SDS011;32110;45.724;21.276;2023-06-26T00:05:13;10.18;;;6.95;;
46407;SDS011;32110;45.724;21.276;2023-06-26T00:07:39;9.27;;;6.55;;
46407;SDS011;32110;45.724;21.276;2023-06-26T00:10:04;11.10;;;7.07;;
46407;SDS011;32110;45.724;21.276;2023-06-26T00:12:31;10.43;;;6.35;;
46407;SDS011;32110;45.724;21.276;2023-06-26T00:14:56;12.40;;;6.75;;
46407;SDS011;32110;45.724;21.276;2023-06-26T00:17:22;12.13;;;7.03;;
46407;SDS011;32110;45.724;21.276;2023-06-26T00:19:47;13.25;;;7.18;;
46407;SDS011;32110;45.724;21.276;2023-06-26T00:22:13;9.23;;;6.68;;
46407;SDS011;32110;45.724;21.276;2023-06-26T00:24:38;12.25;;;6.47;;
46407;SDS011;32110;45.724;21.276;2023-06-26T00:27:04;13.07;;;7.35;;
46407;SDS011;32110;45.724;21.276;2023-06-26T00:29:29;12.88;;;7.72;;
46407;SDS011;32110;45.724;21.276;2023-06-26T00:31:54;11.15;;;7.70;;
46407;SDS011;32110;45.724;21.276;2023-06-26T00:34:20;11.82;;;7.63;;
46407;SDS011;32110;45.724;21.276;2023-06-26T00:36:45;11.63;;;7.90;;
46407;SDS011;32110;45.724;21.276;2023-06-26T00:39:11;13.43;;;7.85;;
46407;SDS011;32110;45.724;21.276;2023-06-26T00:41:37;12.88;;;7.88;;
46407;SDS011;32110;45.724;21.276;2023-06-26T00:44:03;12.27;;;8.40;;
46407;SDS011;32110;45.724;21.276;2023-06-26T00:46:29;13.02;;;7.72;;
46407;SDS011;32110;45.724;21.276;2023-06-26T00:48:55;16.88;;;8.48;;
46407;SDS011;32110;45.724;21.276;2023-06-26T00:51:24;11.40;;;8.27;;
46407;SDS011;32110;45.724;21.276;2023-06-26T00:53:49;13.98;;;9.05;;
46407;SDS011;32110;45.724;21.276;2023-06-26T00:56:15;13.15;;;8.00;;
46407;SDS011;32110;45.724;21.276;2023-06-26T00:58:42;12.48;;;8.00;;
46407;SDS011;32110;45.724;21.276;2023-06-26T01:01:07;13.25;;;7.80;;
46407;SDS011;32110;45.724;21.276;2023-06-26T01:03:33;13.70;;;7.82;;
46407;SDS011;32110;45.724;21.276;2023-06-26T01:05:59;13.52;;;8.55;;
46407;SDS011;32110;45.724;21.276;2023-06-26T01:08:25;13.77;;;7.85;;
46407;SDS011;32110;45.724;21.276;2023-06-26T01:10:52;13.43;;;7.80;;
46407;SDS011;32110;45.724;21.276;2023-06-26T01:13:18;13.60;;;9.00;;
46407;SDS011;32110;45.724;21.276;2023-06-26T01:15:44;15.73;;;8.77;;
46407;SDS011;32110;45.724;21.276;2023-06-26T01:18:11;11.85;;;7.95;;
46407;SDS011;32110;45.724;21.276;2023-06-26T01:20:37;14.30;;;8.75;;
46407;SDS011;32110;45.724;21.276;2023-06-26T01:23:12;11.45;;;8.18;;
46407;SDS011;32110;45.724;21.276;2023-06-26T01:28:36;13.70;;;8.82;;
46407;SDS011;32110;45.724;21.276;2023-06-26T01:31:06;16.52;;;9.07;;
46407;SDS011;32110;45.724;21.276;2023-06-26T01:33:32;10.75;;;7.53;;
46407;SDS011;32110;45.724;21.276;2023-06-26T01:35:58;14.25;;;9.35;;
46407;SDS011;32110;45.724;21.276;2023-06-26T01:38:23;18.80;;;9.32;;
46407;SDS011;32110;45.724;21.276;2023-06-26T01:40:49;14.80;;;9.15;;
46407;SDS011;32110;45.724;21.276;2023-06-26T01:43:20;11.85;;;8.30;;
46407;SDS011;32110;45.724;21.276;2023-06-26T01:45:54;14.10;;;8.68;;
46407;SDS011;32110;45.724;21.276;2023-06-26T01:48:29;11.95;;;8.15;;
46407;SDS011;32110;45.724;21.276;2023-06-26T01:51:00;14.32;;;9.43;;
46407;SDS011;32110;45.724;21.276;2023-06-26T01:53:26;13.40;;;8.68;;
46407;SDS011;32110;45.724;21.276;2023-06-26T01:56:00;14.18;;;9.15;;
46407;SDS011;32110;45.724;21.276;2023-06-26T01:58:32;13.85;;;8.20;;
46407;SDS011;32110;45.724;21.276;2023-06-26T02:01:00;16.60;;;8.82;;
46407;SDS011;32110;45.724;21.276;2023-06-26T02:03:25;15.05;;;9.20;;
46407;SDS011;32110;45.724;21.276;2023-06-26T02:05:51;13.20;;;8.70;;
46407;SDS011;32110;45.724;21.276;2023-06-26T02:08:16;13.32;;;9.13;;
46407;SDS011;32110;45.724;21.276;2023-06-26T02:10:42;13.27;;;9.05;;
46407;SDS011;32110;45.724;21.276;2023-06-26T02:13:07;16.98;;;9.02;;
46407;SDS011;32110;45.724;21.276;2023-06-26T02:15:33;13.98;;;8.88;;
46407;SDS011;32110;45.724;21.276;2023-06-26T02:17:58;11.80;;;8.00;;
46407;SDS011;32110;45.724;21.276;2023-06-26T02:20:23;17.15;;;8.63;;
46407;SDS011;32110;45.724;21.276;2023-06-26T02:22:49;13.65;;;8.30;;
46407;SDS011;32110;45.724;21.276;2023-06-26T02:25:14;13.25;;;8.52;;
46407;SDS011;32110;45.724;21.276;2023-06-26T02:27:40;13.15;;;7.85;;
46407;SDS011;32110;45.724;21.276;2023-06-26T02:30:08;11.10;;;7.93;;
46407;SDS011;32110;45.724;21.276;2023-06-26T02:32:34;14.02;;;8.95;;
46407;SDS011;32110;45.724;21.276;2023-06-26T02:34:59;24.88;;;8.60;;
46407;SDS011;32110;45.724;21.276;2023-06-26T02:37:24;13.18;;;8.02;;
46407;SDS011;32110;45.724;21.276;2023-06-26T02:39:50;13.25;;;8.05;;
46407;SDS011;32110;45.724;21.276;2023-06-26T02:42:15;15.02;;;8.00;;
46407;SDS011;32110;45.724;21.276;2023-06-26T02:44:40;13.85;;;8.27;;
46407;SDS011;32110;45.724;21.276;2023-06-26T02:47:06;13.07;;;8.20;;
46407;SDS011;32110;45.724;21.276;2023-06-26T02:49:31;14.05;;;8.25;;
46407;SDS011;32110;45.724;21.276;2023-06-26T02:51:57;15.43;;;8.63;;
46407;SDS011;32110;45.724;21.276;2023-06-26T02:54:22;11.85;;;7.88;;
46407;SDS011;32110;45.724;21.276;2023-06-26T02:56:47;15.13;;;7.97;;
46407;SDS011;32110;45.724;21.276;2023-06-26T02:59:13;17.40;;;8.25;;
46407;SDS011;32110;45.724;21.276;2023-06-26T03:01:38;14.48;;;8.57;;
46407;SDS011;32110;45.724;21.276;2023-06-26T03:04:04;17.17;;;8.75;;
46407;SDS011;32110;45.724;21.276;2023-06-26T03:06:29;13.00;;;8.25;;
46407;SDS011;32110;45.724;21.276;2023-06-26T03:08:55;13.27;;;8.07;;
46407;SDS011;32110;45.724;21.276;2023-06-26T03:11:20;17.23;;;8.13;;
46407;SDS011;32110;45.724;21.276;2023-06-26T03:13:45;15.30;;;8.15;;
46407;SDS011;32110;45.724;21.276;2023-06-26T03:16:11;11.90;;;8.32;;
46407;SDS011;32110;45.724;21.276;2023-06-26T03:18:36;14.50;;;8.50;;
46407;SDS011;32110;45.724;21.276;2023-06-26T03:21:02;20.52;;;8.30;;
46407;SDS011;32110;45.724;21.276;2023-06-26T03:23:27;14.88;;;9.00;;
46407;SDS011;32110;45.724;21.276;2023-06-26T03:25:55;13.68;;;8.50;;
46407;SDS011;32110;45.724;21.276;2023-06-26T03:28:21;13.80;;;7.87;;
46407;SDS011;32110;45.724;21.276;2023-06-26T03:30:46;16.90;;;9.90;;
46407;SDS011;32110;45.724;21.276;2023-06-26T03:33:12;21.48;;;9.75;;
46407;SDS011;32110;45.724;21.276;2023-06-26T03:35:37;15.48;;;8.82;;
46407;SDS011;32110;45.724;21.276;2023-06-26T03:38:04;13.35;;;8.27;;
46407;SDS011;32110;45.724;21.276;2023-06-26T03:40:30;15.18;;;8.98;;
46407;SDS011;32110;45.724;21.276;2023-06-26T03:42:55;15.07;;;8.30;;
46407;SDS011;32110;45.724;21.276;2023-06-26T03:45:20;18.23;;;8.55;;
46407;SDS011;32110;45.724;21.276;2023-06-26T03:47:46;15.30;;;7.97;;
46407;SDS011;32110;45.724;21.276;2023-06-26T03:50:14;15.77;;;8.93;;
46407;SDS011;32110;45.724;21.276;2023-06-26T03:52:41;13.50;;;8.25;;
46407;SDS011;32110;45.724;21.276;2023-06-26T03:55:06;12.98;;;8.07;;
46407;SDS011;32110;45.724;21.276;2023-06-26T03:57:32;14.40;;;8.50;;
46407;SDS011;32110;45.724;21.276;2023-06-26T03:59:58;12.32;;;8.73;;
46407;SDS011;32110;45.724;21.276;2023-06-26T04:02:23;14.48;;;8.30;;
46407;SDS011;32110;45.724;21.276;2023-06-26T04:04:48;16.25;;;9.10;;
46407;SDS011;32110;45.724;21.276;2023-06-26T04:07:14;13.82;;;9.38;;
46407;SDS011;32110;45.724;21.276;2023-06-26T04:09:39;14.15;;;9.55;;
46407;SDS011;32110;45.724;21.276;2023-06-26T04:12:05;21.30;;;9.70;;
46407;SDS011;32110;45.724;21.276;2023-06-26T04:14:31;15.70;;;9.90;;
46407;SDS011;32110;45.724;21.276;2023-06-26T04:16:56;22.55;;;9.75;;
46407;SDS011;32110;45.724;21.276;2023-06-26T04:19:22;13.68;;;9.27;;
46407;SDS011;32110;45.724;21.276;2023-06-26T04:21:48;15.90;;;9.02;;
46407;SDS011;32110;45.724;21.276;2023-06-26T04:24:13;15.15;;;8.95;;
46407;SDS011;32110;45.724;21.276;2023-06-26T04:26:39;16.30;;;8.50;;
46407;SDS011;32110;45.724;21.276;2023-06-26T04:29:06;13.73;;;8.32;;
46407;SDS011;32110;45.724;21.276;2023-06-26T04:31:32;15.40;;;8.98;;
46407;SDS011;32110;45.724;21.276;2023-06-26T04:33:57;19.00;;;8.95;;
46407;SDS011;32110;45.724;21.276;2023-06-26T04:36:24;16.15;;;9.40;;
46407;SDS011;32110;45.724;21.276;2023-06-26T04:38:53;14.27;;;9.10;;
46407;SDS011;32110;45.724;21.276;2023-06-26T04:41:19;16.10;;;9.00;;
46407;SDS011;32110;45.724;21.276;2023-06-26T04:43:45;15.07;;;9.73;;
46407;SDS011;32110;45.724;21.276;2023-06-26T04:46:10;12.65;;;8.85;;
46407;SDS011;32110;45.724;21.276;2023-06-26T04:48:35;15.02;;;8.65;;
46407;SDS011;32110;45.724;21.276;2023-06-26T04:51:01;17.55;;;8.63;;
46407;SDS011;32110;45.724;21.276;2023-06-26T04:53:26;16.20;;;8.82;;
46407;SDS011;32110;45.724;21.276;2023-06-26T04:55:52;13.13;;;9.07;;
46407;SDS011;32110;45.724;21.276;2023-06-26T04:58:18;17.15;;;9.05;;
46407;SDS011;32110;45.724;21.276;2023-06-26T05:00:44;15.70;;;9.00;;
46407;SDS011;32110;45.724;21.276;2023-06-26T05:03:11;15.63;;;8.65;;
46407;SDS011;32110;45.724;21.276;2023-06-26T05:05:37;13.65;;;8.15;;
46407;SDS011;32110;45.724;21.276;2023-06-26T05:08:20;14.48;;;9.75;;
46407;SDS011;32110;45.724;21.276;2023-06-26T05:10:47;15.35;;;9.05;;
46407;SDS011;32110;45.724;21.276;2023-06-26T05:13:13;14.45;;;9.38;;
46407;SDS011;32110;45.724;21.276;2023-06-26T05:15:44;16.55;;;9.40;;
46407;SDS011;32110;45.724;21.276;2023-06-26T05:18:10;15.70;;;9.60;;
46407;SDS011;32110;45.724;21.276;2023-06-26T05:20:35;16.63;;;9.80;;
46407;SDS011;32110;45.724;21.276;2023-06-26T05:23:01;16.85;;;10.30;;
46407;SDS011;32110;45.724;21.276;2023-06-26T05:25:28;18.38;;;10.20;;
46407;SDS011;32110;45.724;21.276;2023-06-26T05:27:54;16.75;;;9.45;;
46407;SDS011;32110;45.724;21.276;2023-06-26T05:30:20;14.00;;;9.48;;
46407;SDS011;32110;45.724;21.276;2023-06-26T05:32:46;15.88;;;9.38;;
46407;SDS011;32110;45.724;21.276;2023-06-26T05:35:13;16.48;;;9.90;;
46407;SDS011;32110;45.724;21.276;2023-06-26T05:37:39;13.80;;;9.48;;
46407;SDS011;32110;45.724;21.276;2023-06-26T05:40:06;16.55;;;10.10;;
46407;SDS011;32110;45.724;21.276;2023-06-26T05:42:33;16.55;;;9.77;;
46407;SDS011;32110;45.724;21.276;2023-06-26T05:44:59;14.27;;;9.00;;
46407;SDS011;32110;45.724;21.276;2023-06-26T05:47:24;18.17;;;9.82;;
46407;SDS011;32110;45.724;21.276;2023-06-26T05:49:49;16.05;;;9.90;;
46407;SDS011;32110;45.724;21.276;2023-06-26T05:52:15;15.93;;;9.50;;
46407;SDS011;32110;45.724;21.276;2023-06-26T05:54:41;15.65;;;9.50;;
46407;SDS011;32110;45.724;21.276;2023-06-26T05:57:06;17.42;;;10.02;;
46407;SDS011;32110;45.724;21.276;2023-06-26T05:59:32;16.85;;;9.63;;
46407;SDS011;32110;45.724;21.276;2023-06-26T06:01:58;14.77;;;9.57;;
46407;SDS011;32110;45.724;21.276;2023-06-26T06:04:23;13.50;;;8.10;;
46407;SDS011;32110;45.724;21.276;2023-06-26T06:06:48;15.23;;;9.82;;
46407;SDS011;32110;45.724;21.276;2023-06-26T06:09:14;16.50;;;9.50;;
46407;SDS011;32110;45.724;21.276;2023-06-26T06:11:39;15.18;;;9.45;;
46407;SDS011;32110;45.724;21.276;2023-06-26T06:14:05;15.60;;;9.00;;
46407;SDS011;32110;45.724;21.276;2023-06-26T06:16:30;16.42;;;9.23;;
46407;SDS011;32110;45.724;21.276;2023-06-26T06:18:56;18.52;;;9.05;;
46407;SDS011;32110;45.724;21.276;2023-06-26T06:21:21;15.20;;;9.23;;
46407;SDS011;32110;45.724;21.276;2023-06-26T06:23:46;13.23;;;9.35;;
46407;SDS011;32110;45.724;21.276;2023-06-26T06:26:12;12.93;;;8.90;;
46407;SDS011;32110;45.724;21.276;2023-06-26T06:28:38;15.18;;;9.27;;
46407;SDS011;32110;45.724;21.276;2023-06-26T06:31:04;23.45;;;11.55;;
46407;SDS011;32110;45.724;21.276;2023-06-26T06:33:29;14.40;;;9.30;;
46407;SDS011;32110;45.724;21.276;2023-06-26T06:35:54;14.63;;;8.65;;
46407;SDS011;32110;45.724;21.276;2023-06-26T06:38:20;11.23;;;8.27;;
46407;SDS011;32110;45.724;21.276;2023-06-26T06:40:45;15.48;;;8.32;;
46407;SDS011;32110;45.724;21.276;2023-06-26T06:43:10;13.07;;;8.18;;
46407;SDS011;32110;45.724;21.276;2023-06-26T06:45:36;13.27;;;8.75;;
46407;SDS011;32110;45.724;21.276;2023-06-26T06:48:03;12.95;;;8.20;;
46407;SDS011;32110;45.724;21.276;2023-06-26T06:50:28;10.95;;;7.63;;
46407;SDS011;32110;45.724;21.276;2023-06-26T06:52:54;10.77;;;8.27;;
46407;SDS011;32110;45.724;21.276;2023-06-26T06:55:20;16.00;;;9.35;;
46407;SDS011;32110;45.724;21.276;2023-06-26T06:57:45;18.45;;;8.38;;
46407;SDS011;32110;45.724;21.276;2023-06-26T07:00:11;13.15;;;8.25;;
46407;SDS011;32110;45.724;21.276;2023-06-26T07:02:40;13.98;;;8.27;;
46407;SDS011;32110;45.724;21.276;2023-06-26T07:05:07;12.65;;;7.53;;
46407;SDS011;32110;45.724;21.276;2023-06-26T07:07:32;11.30;;;7.75;;
46407;SDS011;32110;45.724;21.276;2023-06-26T07:10:03;15.65;;;8.23;;
46407;SDS011;32110;45.724;21.276;2023-06-26T07:12:29;13.98;;;7.47;;
46407;SDS011;32110;45.724;21.276;2023-06-26T07:14:55;11.15;;;7.60;;
46407;SDS011;32110;45.724;21.276;2023-06-26T07:17:21;13.07;;;7.78;;
46407;SDS011;32110;45.724;21.276;2023-06-26T07:19:47;14.27;;;7.60;;
46407;SDS011;32110;45.724;21.276;2023-06-26T07:22:13;13.88;;;7.68;;
46407;SDS011;32110;45.724;21.276;2023-06-26T07:24:38;16.17;;;7.85;;
46407;SDS011;32110;45.724;21.276;2023-06-26T07:27:04;11.73;;;8.70;;
46407;SDS011;32110;45.724;21.276;2023-06-26T07:29:29;11.75;;;8.43;;
46407;SDS011;32110;45.724;21.276;2023-06-26T07:31:55;17.83;;;7.95;;
46407;SDS011;32110;45.724;21.276;2023-06-26T07:34:20;10.93;;;8.18;;
46407;SDS011;32110;45.724;21.276;2023-06-26T07:36:46;20.48;;;7.95;;
46407;SDS011;32110;45.724;21.276;2023-06-26T07:39:11;10.70;;;7.30;;
46407;SDS011;32110;45.724;21.276;2023-06-26T07:41:36;11.13;;;7.45;;
46407;SDS011;32110;45.724;21.276;2023-06-26T07:44:02;14.52;;;7.80;;
46407;SDS011;32110;45.724;21.276;2023-06-26T07:46:27;11.63;;;7.15;;
46407;SDS011;32110;45.724;21.276;2023-06-26T07:48:53;10.15;;;7.03;;
46407;SDS011;32110;45.724;21.276;2023-06-26T07:51:19;11.32;;;7.28;;
46407;SDS011;32110;45.724;21.276;2023-06-26T07:53:44;9.70;;;6.70;;
46407;SDS011;32110;45.724;21.276;2023-06-26T07:56:10;9.30;;;6.78;;
46407;SDS011;32110;45.724;21.276;2023-06-26T07:58:35;16.90;;;7.75;;
46407;SDS011;32110;45.724;21.276;2023-06-26T08:01:01;11.35;;;7.07;;
46407;SDS011;32110;45.724;21.276;2023-06-26T08:03:26;11.40;;;7.20;;
46407;SDS011;32110;45.724;21.276;2023-06-26T08:05:51;10.10;;;7.60;;
46407;SDS011;32110;45.724;21.276;2023-06-26T08:08:17;13.10;;;6.97;;
46407;SDS011;32110;45.724;21.276;2023-06-26T08:10:42;8.50;;;6.45;;
46407;SDS011;32110;45.724;21.276;2023-06-26T08:13:08;11.57;;;6.55;;
46407;SDS011;32110;45.724;21.276;2023-06-26T08:15:33;7.80;;;5.95;;
46407;SDS011;32110;45.724;21.276;2023-06-26T08:17:59;15.80;;;6.70;;
46407;SDS011;32110;45.724;21.276;2023-06-26T08:20:24;12.35;;;6.50;;
46407;SDS011;32110;45.724;21.276;2023-06-26T08:22:50;11.02;;;6.15;;
46407;SDS011;32110;45.724;21.276;2023-06-26T08:25:17;10.20;;;5.85;;
46407;SDS011;32110;45.724;21.276;2023-06-26T08:27:42;10.60;;;6.10;;
46407;SDS011;32110;45.724;21.276;2023-06-26T08:30:08;8.15;;;5.65;;
46407;SDS011;32110;45.724;21.276;2023-06-26T08:32:34;8.70;;;6.07;;
46407;SDS011;32110;45.724;21.276;2023-06-26T08:35:00;8.48;;;5.43;;
46407;SDS011;32110;45.724;21.276;2023-06-26T08:37:25;6.82;;;5.47;;
46407;SDS011;32110;45.724;21.276;2023-06-26T08:39:50;7.97;;;5.63;;
46407;SDS011;32110;45.724;21.276;2023-06-26T08:42:16;7.97;;;5.32;;
46407;SDS011;32110;45.724;21.276;2023-06-26T08:44:41;9.15;;;5.18;;
46407;SDS011;32110;45.724;21.276;2023-06-26T08:47:07;9.05;;;4.90;;
46407;SDS011;32110;45.724;21.276;2023-06-26T08:50:00;8.85;;;5.22;;
46407;SDS011;32110;45.724;21.276;2023-06-26T08:52:34;6.82;;;4.90;;
46407;SDS011;32110;45.724;21.276;2023-06-26T08:59:57;6.50;;;4.75;;
46407;SDS011;32110;45.724;21.276;2023-06-26T09:02:22;6.78;;;4.70;;
46407;SDS011;32110;45.724;21.276;2023-06-26T09:04:48;6.40;;;4.93;;
46407;SDS011;32110;45.724;21.276;2023-06-26T09:07:15;8.50;;;4.65;;
46407;SDS011;32110;45.724;21.276;2023-06-26T09:09:41;6.55;;;4.70;;
46407;SDS011;32110;45.724;21.276;2023-06-26T09:12:08;7.05;;;5.05;;
46407;SDS011;32110;45.724;21.276;2023-06-26T09:14:33;10.48;;;4.78;;
46407;SDS011;32110;45.724;21.276;2023-06-26T09:17:00;8.40;;;4.78;;
46407;SDS011;32110;45.724;21.276;2023-06-26T09:19:28;6.28;;;4.38;;
46407;SDS011;32110;45.724;21.276;2023-06-26T09:21:54;8.98;;;4.55;;
46407;SDS011;32110;45.724;21.276;2023-06-26T09:24:20;6.30;;;4.40;;
46407;SDS011;32110;45.724;21.276;2023-06-26T09:26:47;11.45;;;4.63;;
46407;SDS011;32110;45.724;21.276;2023-06-26T09:29:13;6.70;;;4.40;;
46407;SDS011;32110;45.724;21.276;2023-06-26T09:31:43;6.60;;;4.50;;
46407;SDS011;32110;45.724;21.276;2023-06-26T09:34:09;6.60;;;4.32;;
46407;SDS011;32110;45.724;21.276;2023-06-26T09:36:35;10.00;;;4.75;;
46407;SDS011;32110;45.724;21.276;2023-06-26T09:39:04;7.35;;;4.22;;
46407;SDS011;32110;45.724;21.276;2023-06-26T09:41:33;7.38;;;4.70;;
46407;SDS011;32110;45.724;21.276;2023-06-26T09:44:01;9.05;;;4.55;;
46407;SDS011;32110;45.724;21.276;2023-06-26T09:46:28;8.95;;;4.68;;
46407;SDS011;32110;45.724;21.276;2023-06-26T09:51:30;8.65;;;4.25;;
46407;SDS011;32110;45.724;21.276;2023-06-26T09:53:57;7.30;;;4.60;;
46407;SDS011;32110;45.724;21.276;2023-06-26T09:56:23;6.13;;;4.22;;
46407;SDS011;32110;45.724;21.276;2023-06-26T09:58:48;9.38;;;4.32;;
46407;SDS011;32110;45.724;21.276;2023-06-26T10:01:14;5.68;;;4.32;;
46407;SDS011;32110;45.724;21.276;2023-06-26T10:03:39;9.05;;;4.38;;
46407;SDS011;32110;45.724;21.276;2023-06-26T10:06:05;6.97;;;4.00;;
46407;SDS011;32110;45.724;21.276;2023-06-26T10:08:34;6.22;;;4.35;;
46407;SDS011;32110;45.724;21.276;2023-06-26T10:11:02;7.27;;;4.40;;
46407;SDS011;32110;45.724;21.276;2023-06-26T10:13:28;4.78;;;4.18;;
46407;SDS011;32110;45.724;21.276;2023-06-26T10:15:59;8.68;;;4.43;;
46407;SDS011;32110;45.724;21.276;2023-06-26T10:18:26;7.82;;;4.25;;
46407;SDS011;32110;45.724;21.276;2023-06-26T10:20:54;7.47;;;4.53;;
46407;SDS011;32110;45.724;21.276;2023-06-26T10:23:21;5.30;;;4.05;;
46407;SDS011;32110;45.724;21.276;2023-06-26T10:25:48;6.82;;;4.40;;
46407;SDS011;32110;45.724;21.276;2023-06-26T10:28:16;5.75;;;4.03;;
46407;SDS011;32110;45.724;21.276;2023-06-26T10:30:43;6.53;;;4.18;;
46407;SDS011;32110;45.724;21.276;2023-06-26T10:33:12;5.70;;;4.32;;
46407;SDS011;32110;45.724;21.276;2023-06-26T10:35:42;5.85;;;4.28;;
46407;SDS011;32110;45.724;21.276;2023-06-26T10:38:09;4.88;;;4.00;;
46407;SDS011;32110;45.724;21.276;2023-06-26T10:40:41;5.65;;;4.32;;
46407;SDS011;32110;45.724;21.276;2023-06-26T10:43:07;5.80;;;4.40;;
46407;SDS011;32110;45.724;21.276;2023-06-26T10:45:34;7.38;;;4.32;;
46407;SDS011;32110;45.724;21.276;2023-06-26T10:48:00;9.65;;;4.25;;
46407;SDS011;32110;45.724;21.276;2023-06-26T10:53:07;6.63;;;4.50;;
46407;SDS011;32110;45.724;21.276;2023-06-26T10:55:42;8.07;;;4.30;;
46407;SDS011;32110;45.724;21.276;2023-06-26T11:01:13;6.15;;;4.10;;
46407;SDS011;32110;45.724;21.276;2023-06-26T11:03:40;6.57;;;4.50;;
46407;SDS011;32110;45.724;21.276;2023-06-26T11:06:29;5.55;;;4.38;;
46407;SDS011;32110;45.724;21.276;2023-06-26T11:14:21;9.25;;;4.25;;
46407;SDS011;32110;45.724;21.276;2023-06-26T11:16:48;5.78;;;4.22;;
46407;SDS011;32110;45.724;21.276;2023-06-26T11:19:14;5.53;;;4.10;;
46407;SDS011;32110;45.724;21.276;2023-06-26T11:21:41;10.82;;;4.80;;
46407;SDS011;32110;45.724;21.276;2023-06-26T11:24:07;5.72;;;4.00;;
46407;SDS011;32110;45.724;21.276;2023-06-26T11:26:42;8.07;;;4.43;;
46407;SDS011;32110;45.724;21.276;2023-06-26T11:29:10;5.90;;;4.20;;
46407;SDS011;32110;45.724;21.276;2023-06-26T11:31:37;5.05;;;3.78;;
46407;SDS011;32110;45.724;21.276;2023-06-26T11:34:07;6.72;;;4.20;;
46407;SDS011;32110;45.724;21.276;2023-06-26T11:36:35;5.47;;;4.38;;
46407;SDS011;32110;45.724;21.276;2023-06-26T11:39:02;6.10;;;4.32;;
46407;SDS011;32110;45.724;21.276;2023-06-26T11:41:31;8.82;;;4.30;;
46407;SDS011;32110;45.724;21.276;2023-06-26T11:44:01;5.22;;;4.03;;
46407;SDS011;32110;45.724;21.276;2023-06-26T11:46:27;6.05;;;3.90;;
46407;SDS011;32110;45.724;21.276;2023-06-26T11:48:53;4.75;;;4.00;;
46407;SDS011;32110;45.724;21.276;2023-06-26T11:51:20;5.78;;;4.05;;
46407;SDS011;32110;45.724;21.276;2023-06-26T11:53:46;8.50;;;4.43;;
46407;SDS011;32110;45.724;21.276;2023-06-26T11:56:13;5.13;;;3.92;;
46407;SDS011;32110;45.724;21.276;2023-06-26T11:59:01;6.18;;;4.03;;
46407;SDS011;32110;45.724;21.276;2023-06-26T12:01:41;8.35;;;4.53;;
46407;SDS011;32110;45.724;21.276;2023-06-26T12:04:11;7.63;;;4.30;;
46407;SDS011;32110;45.724;21.276;2023-06-26T12:06:38;7.00;;;4.07;;
46407;SDS011;32110;45.724;21.276;2023-06-26T12:09:06;7.38;;;4.32;;
46407;SDS011;32110;45.724;21.276;2023-06-26T12:11:42;5.88;;;4.22;;
46407;SDS011;32110;45.724;21.276;2023-06-26T12:14:09;6.65;;;3.85;;
46407;SDS011;32110;45.724;21.276;2023-06-26T12:16:35;5.57;;;3.92;;
46407;SDS011;32110;45.724;21.276;2023-06-26T12:19:06;8.00;;;4.18;;
46407;SDS011;32110;45.724;21.276;2023-06-26T12:24:09;5.60;;;4.40;;
46407;SDS011;32110;45.724;21.276;2023-06-26T12:26:37;8.60;;;4.38;;
46407;SDS011;32110;45.724;21.276;2023-06-26T12:31:28;7.53;;;4.27;;
46407;SDS011;32110;45.724;21.276;2023-06-26T12:33:53;6.90;;;4.35;;
46407;SDS011;32110;45.724;21.276;2023-06-26T12:36:19;6.38;;;4.40;;
46407;SDS011;32110;45.724;21.276;2023-06-26T12:38:45;8.00;;;4.47;;
46407;SDS011;32110;45.724;21.276;2023-06-26T12:41:14;4.95;;;4.13;;
46407;SDS011;32110;45.724;21.276;2023-06-26T12:43:41;10.02;;;4.40;;
46407;SDS011;32110;45.724;21.276;2023-06-26T12:46:07;6.18;;;4.38;;
46407;SDS011;32110;45.724;21.276;2023-06-26T12:48:36;7.35;;;4.57;;
46407;SDS011;32110;45.724;21.276;2023-06-26T12:51:17;6.97;;;4.25;;
46407;SDS011;32110;45.724;21.276;2023-06-26T12:53:43;7.85;;;4.72;;
46407;SDS011;32110;45.724;21.276;2023-06-26T12:56:09;7.75;;;4.25;;
46407;SDS011;32110;45.724;21.276;2023-06-26T12:58:35;10.63;;;4.47;;
46407;SDS011;32110;45.724;21.276;2023-06-26T13:01:06;8.27;;;4.32;;
46407;SDS011;32110;45.724;21.276;2023-06-26T13:03:42;6.03;;;4.35;;
46407;SDS011;32110;45.724;21.276;2023-06-26T13:06:08;7.07;;;4.13;;
46407;SDS011;32110;45.724;21.276;2023-06-26T13:08:33;8.15;;;4.20;;
46407;SDS011;32110;45.724;21.276;2023-06-26T13:10:59;6.88;;;4.30;;
46407;SDS011;32110;45.724;21.276;2023-06-26T13:13:24;4.70;;;3.75;;
46407;SDS011;32110;45.724;21.276;2023-06-26T13:15:51;10.63;;;4.35;;
46407;SDS011;32110;45.724;21.276;2023-06-26T13:18:16;8.20;;;4.40;;
46407;SDS011;32110;45.724;21.276;2023-06-26T13:20:42;5.53;;;4.00;;
46407;SDS011;32110;45.724;21.276;2023-06-26T13:23:07;6.05;;;4.38;;
46407;SDS011;32110;45.724;21.276;2023-06-26T13:25:33;6.78;;;4.15;;
46407;SDS011;32110;45.724;21.276;2023-06-26T13:27:58;5.78;;;4.45;;
46407;SDS011;32110;45.724;21.276;2023-06-26T13:30:23;6.43;;;4.53;;
46407;SDS011;32110;45.724;21.276;2023-06-26T13:32:49;6.30;;;4.45;;
46407;SDS011;32110;45.724;21.276;2023-06-26T13:35:15;6.28;;;3.95;;
46407;SDS011;32110;45.724;21.276;2023-06-26T13:37:41;5.75;;;4.38;;
46407;SDS011;32110;45.724;21.276;2023-06-26T13:40:07;6.93;;;4.47;;
46407;SDS011;32110;45.724;21.276;2023-06-26T13:42:34;5.47;;;4.40;;
46407;SDS011;32110;45.724;21.276;2023-06-26T13:45:01;8.15;;;4.43;;
46407;SDS011;32110;45.724;21.276;2023-06-26T13:47:28;6.25;;;4.00;;
46407;SDS011;32110;45.724;21.276;2023-06-26T13:49:53;9.80;;;4.68;;
46407;SDS011;32110;45.724;21.276;2023-06-26T13:52:19;4.63;;;4.10;;
46407;SDS011;32110;45.724;21.276;2023-06-26T13:54:44;5.80;;;4.23;;
46407;SDS011;32110;45.724;21.276;2023-06-26T13:57:09;5.28;;;4.40;;
46407;SDS011;32110;45.724;21.276;2023-06-26T13:59:36;8.50;;;4.88;;
46407;SDS011;32110;45.724;21.276;2023-06-26T14:02:03;9.30;;;4.20;;
46407;SDS011;32110;45.724;21.276;2023-06-26T14:04:30;7.97;;;5.00;;
46407;SDS011;32110;45.724;21.276;2023-06-26T14:06:55;7.10;;;4.78;;
46407;SDS011;32110;45.724;21.276;2023-06-26T14:09:21;7.72;;;4.70;;
46407;SDS011;32110;45.724;21.276;2023-06-26T14:11:46;10.77;;;4.85;;
46407;SDS011;32110;45.724;21.276;2023-06-26T14:14:12;4.72;;;4.22;;
46407;SDS011;32110;45.724;21.276;2023-06-26T14:16:38;8.85;;;4.53;;
46407;SDS011;32110;45.724;21.276;2023-06-26T14:19:05;6.90;;;4.25;;
46407;SDS011;32110;45.724;21.276;2023-06-26T14:21:30;8.25;;;4.47;;
46407;SDS011;32110;45.724;21.276;2023-06-26T14:23:56;7.72;;;4.55;;
46407;SDS011;32110;45.724;21.276;2023-06-26T14:26:21;5.45;;;4.53;;
46407;SDS011;32110;45.724;21.276;2023-06-26T14:28:47;5.65;;;4.65;;
46407;SDS011;32110;45.724;21.276;2023-06-26T14:31:12;7.13;;;4.80;;
46407;SDS011;32110;45.724;21.276;2023-06-26T14:33:39;7.90;;;4.30;;
46407;SDS011;32110;45.724;21.276;2023-06-26T14:36:04;8.88;;;4.53;;
46407;SDS011;32110;45.724;21.276;2023-06-26T14:38:30;7.88;;;4.80;;
46407;SDS011;32110;45.724;21.276;2023-06-26T14:40:55;15.55;;;5.65;;
46407;SDS011;32110;45.724;21.276;2023-06-26T14:43:21;8.02;;;4.63;;
46407;SDS011;32110;45.724;21.276;2023-06-26T14:45:46;6.57;;;4.75;;
46407;SDS011;32110;45.724;21.276;2023-06-26T14:48:12;11.07;;;4.63;;